Time;durP1;ratioP1;P1;durP2;ratioP2;P2;SDS_P1;SDS_P2;PMS_P1;PMS_P2;Temp;Humidity;BMP_temperature;BMP_pressure;BME280_temperature;BME280_humidity;BME280_pressure;Samples;Min_cycle;Max_cycle;Signal;HPM_P1;HPM_P2
2022/10/01 00:01:59;;;;;;;12.95;6.15;;;;;;;15.26;89.59;99235.63;1677826;85;21073;-81
2022/10/01 00:04:27;;;;;;;16.10;6.87;;;;;;;15.28;90.06;99244.31;1678887;84;21045;-81
2022/10/01 00:06:58;;;;;;;12.85;6.40;;;;;;;15.30;89.78;99241.16;1682590;84;20971;-81
2022/10/01 00:09:25;;;;;;;12.07;6.75;;;;;;;15.33;89.67;99245.41;1691416;84;21038;-85
2022/10/01 00:11:53;;;;;;;15.35;6.47;;;;;;;15.30;88.89;99240.70;1684711;84;21012;-82
2022/10/01 00:14:20;;;;;;;14.93;6.60;;;;;;;15.25;89.52;99238.72;1696600;84;20956;-81
2022/10/01 00:16:48;;;;;;;14.78;7.35;;;;;;;15.26;89.41;99239.13;1679105;84;21571;-82
2022/10/01 00:19:16;;;;;;;11.68;6.60;;;;;;;15.29;89.23;99235.52;1641149;86;21015;-82
2022/10/01 00:21:44;;;;;;;10.80;6.00;;;;;;;15.30;88.95;99234.62;1646796;87;21077;-80
2022/10/01 00:24:12;;;;;;;10.68;5.62;;;;;;;15.28;88.61;99231.21;1652844;87;21075;-80
2022/10/01 00:26:41;;;;;;;13.05;5.90;;;;;;;15.21;87.96;99227.98;1648769;86;21000;-81
2022/10/01 00:29:13;;;;;;;12.20;6.20;;;;;;;15.14;87.67;99232.22;1651899;87;20988;-82
2022/10/01 00:31:41;;;;;;;12.82;6.25;;;;;;;15.10;88.09;99230.22;1650426;87;21660;-81
2022/10/01 00:34:12;;;;;;;13.55;6.85;;;;;;;15.07;87.81;99227.70;1682132;85;21513;-79
2022/10/01 00:36:41;;;;;;;13.75;6.10;;;;;;;15.02;87.92;99221.80;1661074;86;20994;-83
2022/10/01 00:39:11;;;;;;;16.25;6.72;;;;;;;14.96;87.91;99226.86;1684923;85;21045;-80
2022/10/01 00:41:39;;;;;;;17.92;6.92;;;;;;;14.89;88.00;99214.45;1662033;86;21077;-80
2022/10/01 00:44:32;;;;;;;16.55;6.53;;;;;;;14.91;88.55;99220.48;1665719;86;21010;-83
2022/10/01 00:47:09;;;;;;;12.00;6.25;;;;;;;14.93;89.48;99220.42;1655664;86;21065;-82
2022/10/01 00:49:38;;;;;;;11.50;6.35;;;;;;;14.90;88.83;99220.10;1663928;86;21017;-81
2022/10/01 00:52:12;;;;;;;9.90;5.40;;;;;;;14.90;88.96;99221.41;1660182;85;21046;-82
2022/10/01 00:54:48;;;;;;;9.30;5.30;;;;;;;14.84;87.60;99209.88;1661710;86;20966;-81
2022/10/01 00:57:20;;;;;;;11.45;5.50;;;;;;;14.76;87.42;99215.86;1658748;86;21018;-81
2022/10/01 00:59:49;;;;;;;8.60;5.03;;;;;;;14.68;87.33;99223.16;1660408;86;20994;-81
2022/10/01 01:02:17;;;;;;;7.87;4.60;;;;;;;14.62;87.67;99216.87;1663688;85;21069;-81
2022/10/01 01:04:45;;;;;;;7.40;4.47;;;;;;;14.58;87.60;99210.91;1662943;86;21036;-82
2022/10/01 01:07:13;;;;;;;11.22;4.90;;;;;;;14.49;87.27;99204.25;1640685;87;20991;-80
2022/10/01 01:09:45;;;;;;;9.13;5.35;;;;;;;14.44;87.56;99199.67;1639805;87;21024;-82
2022/10/01 01:12:50;;;;;;;9.00;4.75;;;;;;;14.42;87.72;99196.23;1647372;87;21003;-80
2022/10/01 01:15:54;;;;;;;8.48;4.62;;;;;;;14.39;88.59;99200.76;1658557;86;21055;-81
2022/10/01 01:18:36;;;;;;;10.48;5.00;;;;;;;14.37;89.24;99208.66;1680915;85;20978;-81
2022/10/01 01:21:27;;;;;;;10.70;5.97;;;;;;;14.33;88.70;99204.00;1680127;85;20963;-81
2022/10/01 01:24:24;;;;;;;11.83;5.62;;;;;;;14.25;87.54;99209.14;1646328;86;21509;-84
2022/10/01 01:27:27;;;;;;;9.08;4.95;;;;;;;14.18;89.05;99209.80;1659038;86;21134;-83
2022/10/01 01:30:09;;;;;;;11.25;5.33;;;;;;;14.21;89.91;99201.02;1662393;86;20994;-82
2022/10/01 01:32:54;;;;;;;10.18;5.85;;;;;;;14.23;90.16;99200.50;1651992;86;21526;-82
2022/10/01 01:35:53;;;;;;;13.70;6.58;;;;;;;14.25;91.02;99206.05;1662716;86;20990;-80
2022/10/01 01:38:29;;;;;;;13.95;6.90;;;;;;;14.26;90.55;99191.21;1663723;86;21106;-81
2022/10/01 01:41:00;;;;;;;16.15;6.90;;;;;;;14.27;91.02;99183.78;1660137;86;21026;-81
2022/10/01 01:43:32;;;;;;;18.80;7.40;;;;;;;14.30;90.97;99199.33;1662813;85;21086;-81
2022/10/01 01:46:03;;;;;;;12.78;7.03;;;;;;;14.27;91.48;99189.85;1670441;84;21145;-81
2022/10/01 01:48:35;;;;;;;14.10;7.15;;;;;;;14.31;89.85;99176.20;1667961;86;21034;-81
2022/10/01 01:51:20;;;;;;;13.40;7.37;;;;;;;14.28;91.16;99178.50;1677464;85;21053;-88
2022/10/01 01:53:48;;;;;;;15.80;8.00;;;;;;;14.31;91.67;99183.59;1675913;85;21065;-85
2022/10/01 01:56:16;;;;;;;12.98;7.37;;;;;;;14.32;91.98;99190.97;1658407;85;20973;-83
2022/10/01 01:58:46;;;;;;;13.93;6.70;;;;;;;14.34;92.96;99189.14;1619157;88;21362;-83
2022/10/01 02:01:33;;;;;;;14.73;7.42;;;;;;;14.38;91.84;99188.11;1624564;87;21514;-81
2022/10/01 02:04:06;;;;;;;13.88;6.87;;;;;;;14.40;92.75;99186.29;1621430;88;21556;-84
2022/10/01 02:06:45;;;;;;;14.63;7.00;;;;;;;14.41;91.72;99192.39;1598790;88;21078;-80
2022/10/01 02:09:39;;;;;;;12.00;6.83;;;;;;;14.43;92.75;99191.41;1625507;88;21539;-81
2022/10/01 02:12:15;;;;;;;14.45;7.22;;;;;;;14.44;92.25;99198.36;1621929;88;21543;-80
2022/10/01 02:14:53;;;;;;;15.60;7.17;;;;;;;14.42;93.12;99192.77;1668471;86;21083;-81
2022/10/01 02:17:35;;;;;;;13.83;6.62;;;;;;;14.46;93.19;99198.28;1653564;86;21026;-83
2022/10/01 02:20:11;;;;;;;13.88;6.45;;;;;;;14.46;93.05;99208.31;1664545;86;21010;-79
2022/10/01 02:22:51;;;;;;;10.68;6.12;;;;;;;14.43;93.15;99217.57;1620753;88;21120;-81
2022/10/01 02:25:25;;;;;;;12.07;6.12;;;;;;;14.45;92.99;99220.98;1622442;88;21049;-82
2022/10/01 02:27:57;;;;;;;;;;;;;;;14.46;92.75;99216.59;1617901;88;20962;-83
2022/10/01 02:30:24;;;;;;;10.45;6.05;;;;;;;14.44;92.43;99212.75;1620921;88;20139;-85
2022/10/01 02:32:53;;;;;;;10.53;5.12;;;;;;;14.36;91.14;99203.48;1622616;88;21000;-81
2022/10/01 02:35:22;;;;;;;8.93;5.37;;;;;;;14.30;90.97;99202.82;1621515;88;20998;-83
2022/10/01 02:37:52;;;;;;;11.48;5.83;;;;;;;14.27;91.73;99198.16;1616960;88;21026;-81
2022/10/01 02:40:25;;;;;;;11.68;6.08;;;;;;;14.23;91.53;99188.73;1621005;88;20986;-84
2022/10/01 02:42:58;;;;;;;13.45;7.58;;;;;;;14.22;91.69;99198.31;1620181;88;20990;-82
2022/10/01 02:45:26;;;;;;;;;;;;;;;14.20;91.05;99199.30;1622978;87;21071;-81
2022/10/01 02:47:59;;;;;;;13.60;6.70;;;;;;;14.10;90.58;99207.94;1620908;88;20103;-82
2022/10/01 02:50:32;;;;;;;15.98;7.03;;;;;;;14.05;90.26;99211.20;1600272;89;21013;-82
2022/10/01 02:53:18;;;;;;;13.68;7.40;;;;;;;13.98;92.70;99201.41;1619727;88;21530;-79
2022/10/01 02:55:47;;;;;;;13.53;7.15;;;;;;;13.93;93.46;99204.66;1615038;88;21002;-81
2022/10/01 02:58:17;;;;;;;18.17;7.53;;;;;;;13.93;94.05;99200.74;1617007;88;21001;-82
2022/10/01 03:00:45;;;;;;;13.22;7.30;;;;;;;13.97;93.66;99192.34;1598426;88;20959;-81
2022/10/01 03:03:13;;;;;;;13.18;6.08;;;;;;;13.96;92.03;99189.31;1621081;88;21087;-86
2022/10/01 03:05:41;;;;;;;17.32;7.80;;;;;;;13.96;91.84;99185.39;1632724;87;21034;-81
2022/10/01 03:08:08;;;;;;;14.10;6.97;;;;;;;13.96;93.21;99183.63;1648636;87;21014;-81
2022/10/01 03:10:36;;;;;;;11.12;5.87;;;;;;;13.99;94.23;99190.06;1643341;87;21001;-81
2022/10/01 03:13:06;;;;;;;10.43;5.67;;;;;;;13.98;93.25;99202.71;1648706;87;21547;-82
2022/10/01 03:15:33;;;;;;;14.20;6.97;;;;;;;13.95;92.63;99202.84;1647580;87;20991;-81
2022/10/01 03:18:00;;;;;;;14.25;5.92;;;;;;;13.94;93.98;99208.97;1649576;86;21066;-83
2022/10/01 03:20:28;;;;;;;12.05;6.12;;;;;;;13.95;94.47;99213.30;1651943;86;21525;-81
2022/10/01 03:22:56;;;;;;;14.23;6.53;;;;;;;13.96;93.51;99225.91;1662548;86;21006;-80
2022/10/01 03:25:23;;;;;;;13.78;6.80;;;;;;;13.96;94.79;99224.13;1628139;87;20996;-81
2022/10/01 03:27:53;;;;;;;19.62;8.38;;;;;;;13.98;94.71;99231.92;1628403;87;21114;-83
2022/10/01 03:30:21;;;;;;;23.25;8.35;;;;;;;14.02;95.67;99236.13;1634610;86;21006;-81
2022/10/01 03:32:48;;;;;;;16.85;8.00;;;;;;;14.05;95.26;99232.11;1639683;87;21030;-81
2022/10/01 03:35:16;;;;;;;15.90;7.33;;;;;;;14.05;94.89;99237.34;1633004;86;20995;-81
2022/10/01 03:37:43;;;;;;;14.40;6.80;;;;;;;14.03;94.28;99240.00;1641015;87;21028;-81
2022/10/01 03:40:11;;;;;;;11.93;5.67;;;;;;;14.02;95.11;99246.13;1634814;87;21005;-84
2022/10/01 03:42:38;;;;;;;11.43;6.12;;;;;;;14.00;93.86;99244.48;1669578;86;21037;-82
2022/10/01 03:45:07;;;;;;;18.07;7.17;;;;;;;14.01;94.51;99243.12;1649761;86;21154;-82
2022/10/01 03:47:35;;;;;;;18.12;8.18;;;;;;;14.05;94.63;99247.80;1655336;86;21122;-85
2022/10/01 03:50:03;;;;;;;15.23;6.00;;;;;;;14.03;93.83;99251.77;1651223;84;21003;-86
2022/10/01 03:52:31;;;;;;;12.40;6.35;;;;;;;14.04;93.42;99250.84;1665497;85;20968;-86
2022/10/01 03:54:59;;;;;;;15.15;6.97;;;;;;;13.98;93.75;99249.77;1690538;85;20962;-84
2022/10/01 03:57:27;;;;;;;15.83;5.75;;;;;;;14.00;93.42;99246.64;1669364;86;21002;-85
2022/10/01 03:59:54;;;;;;;11.55;6.17;;;;;;;13.98;94.89;99251.06;1672068;85;21554;-84
2022/10/01 04:02:22;;;;;;;16.45;6.62;;;;;;;13.99;94.23;99252.79;1661175;86;21005;-84
2022/10/01 04:04:50;;;;;;;15.30;6.28;;;;;;;14.03;94.66;99243.92;1675224;86;20991;-83
2022/10/01 04:07:18;;;;;;;11.03;6.33;;;;;;;14.03;93.34;99240.47;1663812;86;21046;-85
2022/10/01 04:09:45;;;;;;;11.83;6.45;;;;;;;14.01;94.26;99238.36;1669136;86;21062;-84
2022/10/01 04:12:13;;;;;;;12.78;6.25;;;;;;;14.04;94.66;99240.84;1665147;86;21021;-81
2022/10/01 04:14:40;;;;;;;12.03;6.90;;;;;;;14.04;95.37;99242.16;1651001;85;21518;-82
2022/10/01 04:17:08;;;;;;;10.35;5.87;;;;;;;14.08;95.62;99245.05;1662301;85;21105;-83
2022/10/01 04:19:36;;;;;;;11.50;6.10;;;;;;;14.07;94.86;99253.36;1671858;86;20978;-82
2022/10/01 04:22:03;;;;;;;11.57;6.50;;;;;;;14.09;94.99;99254.61;1671094;86;21138;-83
2022/10/01 04:24:30;;;;;;;13.13;6.80;;;;;;;14.10;95.20;99255.84;1647418;86;20976;-81
2022/10/01 04:26:58;;;;;;;12.68;6.60;;;;;;;14.13;95.30;99259.66;1617948;88;21563;-82
2022/10/01 04:29:25;;;;;;;19.05;7.22;;;;;;;14.14;94.86;99263.13;1641956;87;21530;-81
2022/10/01 04:31:53;;;;;;;17.10;7.65;;;;;;;14.16;95.54;99261.30;1666345;86;21078;-82
2022/10/01 04:34:51;;;;;;;16.73;6.97;;;;;;;14.20;95.86;99268.59;1659982;86;20971;-81
2022/10/01 04:36:51;;;;;;;13.55;7.30;;;;;;;14.24;95.65;99270.17;1680554;85;21557;-81
2022/10/01 04:39:18;;;;;;;14.45;7.33;;;;;;;14.22;94.24;99272.84;1685441;85;21374;-83
2022/10/01 04:41:46;;;;;;;16.70;7.65;;;;;;;14.19;94.11;99278.20;1680622;85;21022;-84
2022/10/01 04:44:13;;;;;;;15.18;7.50;;;;;;;14.20;93.84;99279.05;1681026;85;21129;-81
2022/10/01 04:46:41;;;;;;;13.30;7.42;;;;;;;14.17;95.08;99285.25;1680629;84;21069;-81
2022/10/01 04:49:09;;;;;;;15.35;8.10;;;;;;;14.17;94.63;99287.02;1679749;85;21077;-81
2022/10/01 04:51:36;;;;;;;13.72;8.13;;;;;;;14.23;95.68;99281.56;1685930;85;21045;-81
2022/10/01 04:54:04;;;;;;;12.23;7.20;;;;;;;14.25;95.56;99275.36;1683621;85;20982;-79
2022/10/01 04:56:31;;;;;;;14.33;7.85;;;;;;;14.27;94.79;99274.84;1661593;85;21055;-82
2022/10/01 04:58:59;;;;;;;17.32;8.40;;;;;;;14.27;94.37;99271.38;1672519;85;21468;-81
2022/10/01 05:01:26;;;;;;;15.63;8.18;;;;;;;14.28;94.54;99279.17;1645618;86;21003;-80
2022/10/01 05:03:54;;;;;;;15.68;8.90;;;;;;;14.25;94.55;99277.97;1667806;86;20970;-83
2022/10/01 05:06:22;;;;;;;17.30;8.75;;;;;;;14.23;95.88;99285.02;1664362;85;21033;-79
2022/10/01 05:08:51;;;;;;;11.35;7.28;;;;;;;14.25;95.25;99279.73;1679588;85;20974;-80
2022/10/01 05:11:18;;;;;;;14.20;7.75;;;;;;;14.23;94.70;99279.79;1608506;89;20978;-81
2022/10/01 05:13:46;;;;;;;13.78;7.28;;;;;;;14.20;95.08;99277.73;1633765;88;21538;-84
2022/10/01 05:16:13;;;;;;;13.13;7.30;;;;;;;14.19;95.41;99266.89;1625062;88;21565;-82
2022/10/01 05:18:41;;;;;;;15.98;8.53;;;;;;;14.18;94.23;99271.25;1664050;85;20981;-82
2022/10/01 05:21:10;;;;;;;17.07;8.08;;;;;;;14.13;96.09;99272.73;1659467;85;21025;-83
2022/10/01 05:23:38;;;;;;;18.90;8.65;;;;;;;14.14;94.92;99274.89;1606513;89;21036;-81
2022/10/01 05:26:06;;;;;;;15.32;7.90;;;;;;;14.05;96.13;99278.70;1634852;87;21038;-81
2022/10/01 05:28:35;;;;;;;17.52;7.83;;;;;;;14.06;95.05;99273.02;1671999;85;21062;-83
2022/10/01 05:31:03;;;;;;;14.45;8.13;;;;;;;14.03;95.97;99273.14;1633857;87;21046;-84
2022/10/01 05:33:32;;;;;;;14.70;7.72;;;;;;;14.03;95.57;99282.29;1647493;87;21047;-81
2022/10/01 05:36:02;;;;;;;13.25;7.45;;;;;;;14.02;96.66;99282.72;1648401;87;21019;-82
2022/10/01 05:38:29;;;;;;;14.35;8.00;;;;;;;14.08;97.68;99283.80;1653860;87;21008;-81
2022/10/01 05:40:57;;;;;;;17.87;7.70;;;;;;;14.15;96.82;99287.06;1653094;87;21017;-83
2022/10/01 05:43:25;;;;;;;12.03;7.30;;;;;;;14.16;96.13;99286.60;1649521;87;20993;-81
2022/10/01 05:45:53;;;;;;;12.07;6.33;;;;;;;14.18;95.84;99286.94;1647035;86;21064;-84
2022/10/01 05:48:20;;;;;;;12.82;7.45;;;;;;;14.20;95.72;99280.34;1647974;87;21059;-81
2022/10/01 05:50:48;;;;;;;13.10;7.67;;;;;;;14.22;96.20;99278.53;1649311;87;21028;-82
2022/10/01 05:53:16;;;;;;;13.53;7.53;;;;;;;14.26;95.50;99282.73;1644268;87;21004;-84
2022/10/01 05:55:43;;;;;;;15.80;8.45;;;;;;;14.36;96.46;99283.25;1631732;88;21005;-82
2022/10/01 05:58:13;;;;;;;22.45;9.48;;;;;;;14.43;96.87;99284.27;1625806;88;21010;-82
2022/10/01 06:00:42;;;;;;;24.15;10.10;;;;;;;14.52;97.13;99283.94;1634136;88;21030;-83
2022/10/01 06:03:11;;;;;;;22.82;9.43;;;;;;;14.67;97.20;99277.73;1620788;88;21042;-83
2022/10/01 06:05:39;;;;;;;20.60;9.65;;;;;;;14.75;95.85;99280.06;1634830;88;21023;-83
2022/10/01 06:08:10;;;;;;;16.45;8.78;;;;;;;14.70;95.52;99274.55;1627653;88;21007;-85
2022/10/01 06:10:38;;;;;;;23.27;10.55;;;;;;;14.79;95.93;99280.33;1663105;86;21058;-84
2022/10/01 06:13:06;;;;;;;17.20;8.85;;;;;;;14.88;96.45;99280.83;1620687;87;21091;-81
2022/10/01 06:15:37;;;;;;;14.35;8.43;;;;;;;15.00;96.04;99275.99;1656781;86;21013;-80
2022/10/01 06:18:10;;;;;;;16.57;8.48;;;;;;;15.10;95.43;99277.34;1632646;86;21502;-81
2022/10/01 06:20:39;;;;;;;;;;;;;;;15.13;94.39;99282.44;1640382;87;21122;-83
2022/10/01 06:23:11;;;;;;;18.92;8.60;;;;;;;15.17;93.89;99268.30;1643315;87;20124;-81
2022/10/01 06:25:41;;;;;;;20.65;9.35;;;;;;;15.19;93.55;99262.55;1649837;87;21011;-81
2022/10/01 06:28:11;;;;;;;17.32;8.98;;;;;;;15.21;93.58;99263.34;1644325;85;21102;-80
2022/10/01 06:30:39;;;;;;;19.77;9.05;;;;;;;15.22;93.33;99271.60;1649276;85;21586;-80
2022/10/01 06:33:11;;;;;;;14.85;9.00;;;;;;;15.23;93.05;99267.20;1641011;85;20997;-84
2022/10/01 06:35:46;;;;;;;14.40;8.75;;;;;;;15.21;93.03;99267.73;1656535;85;21013;-80
2022/10/01 06:38:14;;;;;;;19.40;9.05;;;;;;;15.24;93.19;99267.16;1668462;86;21577;-83
2022/10/01 06:40:42;;;;;;;16.20;9.05;;;;;;;15.20;92.76;99267.32;1670623;84;21477;-81
2022/10/01 06:43:09;;;;;;;22.32;9.58;;;;;;;15.21;93.09;99269.04;1670657;85;20996;-84
2022/10/01 06:45:41;;;;;;;17.60;9.25;;;;;;;15.23;92.75;99273.29;1653950;85;21059;-85
2022/10/01 06:48:13;;;;;;;20.92;10.10;;;;;;;15.27;92.97;99268.31;1653967;86;21506;-87
2022/10/01 06:50:42;;;;;;;17.65;9.35;;;;;;;15.31;93.25;99267.27;1667201;86;21513;-86
2022/10/01 06:53:11;;;;;;;18.35;9.25;;;;;;;15.42;93.24;99265.53;1669118;86;21165;-82
2022/10/01 06:55:40;;;;;;;18.60;9.78;;;;;;;15.41;93.08;99260.34;1661043;86;21027;-85
2022/10/01 06:58:25;;;;;;;15.83;8.68;;;;;;;15.41;92.95;99265.12;1668470;86;21522;-81
2022/10/01 07:00:49;;;;;;;17.25;9.68;;;;;;;15.42;92.55;99276.01;1664777;85;21009;-82
2022/10/01 07:03:20;;;;;;;19.87;9.53;;;;;;;15.47;93.16;99266.17;1667595;86;20991;-84
2022/10/01 07:05:48;;;;;;;27.02;10.05;;;;;;;15.58;93.07;99257.87;1675240;85;21492;-80
2022/10/01 07:08:16;;;;;;;20.15;9.80;;;;;;;15.67;92.71;99262.69;1655027;86;21002;-84
2022/10/01 07:10:44;;;;;;;17.50;9.65;;;;;;;15.75;92.36;99254.53;1665353;86;21006;-80
2022/10/01 07:13:15;;;;;;;19.65;9.95;;;;;;;15.79;91.93;99260.50;1662921;86;20994;-79
2022/10/01 07:15:44;;;;;;;18.50;9.48;;;;;;;15.87;91.99;99248.74;1664028;85;21089;-85
2022/10/01 07:18:12;;;;;;;18.23;9.65;;;;;;;16.02;92.45;99244.60;1666788;86;20975;-80
2022/10/01 07:20:40;;;;;;;17.62;9.45;;;;;;;16.18;92.64;99238.20;1663475;86;21083;-81
2022/10/01 07:23:11;;;;;;;18.10;8.93;;;;;;;16.32;92.40;99241.50;1662398;85;20989;-81
2022/10/01 07:25:40;;;;;;;16.07;9.50;;;;;;;16.41;91.78;99231.03;1616163;88;20999;-82
2022/10/01 07:28:15;;;;;;;19.85;10.38;;;;;;;16.40;90.54;99238.52;1632321;88;21011;-81
2022/10/01 07:30:48;;;;;;;18.92;9.43;;;;;;;16.36;90.63;99228.63;1664026;85;21105;-81
2022/10/01 07:33:18;;;;;;;22.02;9.65;;;;;;;16.41;90.38;99222.72;1676804;85;21037;-82
2022/10/01 07:35:46;;;;;;;20.02;9.08;;;;;;;16.41;90.31;99231.91;1656230;86;21547;-78
2022/10/01 07:38:14;;;;;;;22.90;10.05;;;;;;;16.41;90.33;99231.91;1619676;87;21564;-78
2022/10/01 07:40:42;;;;;;;18.25;9.85;;;;;;;16.49;90.23;99246.82;1639569;87;21543;-80
2022/10/01 07:43:09;;;;;;;14.83;8.95;;;;;;;16.62;90.07;99243.61;1634363;86;21605;-81
2022/10/01 07:45:37;;;;;;;16.93;9.23;;;;;;;16.79;90.25;99241.48;1659811;85;21157;-80
2022/10/01 07:48:06;;;;;;;17.12;10.08;;;;;;;16.87;88.63;99236.30;1681109;85;21050;-81
2022/10/01 07:50:33;;;;;;;23.12;9.63;;;;;;;16.94;88.83;99236.83;1688408;85;21439;-80
2022/10/01 07:53:01;;;;;;;19.02;9.80;;;;;;;17.04;88.87;99234.61;1681561;85;21025;-81
2022/10/01 07:55:29;;;;;;;17.92;8.45;;;;;;;17.08;88.27;99226.96;1660187;85;21044;-83
2022/10/01 07:58:01;;;;;;;17.07;8.88;;;;;;;17.11;88.17;99221.57;1613882;88;21051;-81
2022/10/01 08:00:32;;;;;;;16.27;9.73;;;;;;;17.18;88.24;99222.94;1632268;87;21061;-80
2022/10/01 08:03:00;;;;;;;22.82;9.83;;;;;;;17.33;88.03;99223.09;1636572;86;21079;-82
2022/10/01 08:05:34;;;;;;;22.15;10.15;;;;;;;17.29;87.86;99220.63;1667409;85;20914;-81
2022/10/01 08:08:05;;;;;;;18.02;10.00;;;;;;;17.34;87.58;99218.23;1682301;85;21025;-81
2022/10/01 08:10:36;;;;;;;16.87;9.28;;;;;;;17.44;87.99;99211.10;1604740;89;21021;-81
2022/10/01 08:13:13;;;;;;;20.23;9.03;;;;;;;17.53;88.13;99208.48;1637929;87;21057;-85
2022/10/01 08:15:37;;;;;;;17.02;9.45;;;;;;;17.65;88.24;99208.31;1637690;87;20998;-83
2022/10/01 08:18:05;;;;;;;15.18;9.43;;;;;;;17.75;87.50;99208.20;1679957;85;20990;-84
2022/10/01 08:20:32;;;;;;;19.05;9.70;;;;;;;17.86;87.80;99197.98;1643469;85;21324;-83
2022/10/01 08:23:03;;;;;;;17.27;9.23;;;;;;;17.97;87.63;99200.05;1635552;88;21073;-83
2022/10/01 08:25:31;;;;;;;15.32;9.88;;;;;;;18.05;87.04;99197.86;1631344;88;20942;-82
2022/10/01 08:27:59;;;;;;;17.73;9.30;;;;;;;18.13;86.45;99199.23;1636293;88;21080;-82
2022/10/01 08:30:28;;;;;;;17.17;9.63;;;;;;;18.26;85.76;99201.11;1631714;88;21036;-82
2022/10/01 08:32:56;;;;;;;21.30;10.58;;;;;;;18.28;85.40;99191.80;1631731;88;21525;-81
2022/10/01 08:35:25;;;;;;;16.37;9.35;;;;;;;18.33;85.45;99183.19;1630596;88;21517;-80
2022/10/01 08:37:55;;;;;;;18.40;9.48;;;;;;;18.36;85.22;99184.31;1657313;85;21014;-84
2022/10/01 08:40:23;;;;;;;18.70;9.88;;;;;;;18.35;85.20;99182.63;1664724;85;21501;-82
2022/10/01 08:43:05;;;;;;;20.08;10.48;;;;;;;18.44;84.99;99174.23;1658264;85;21026;-82
2022/10/01 08:45:57;;;;;;;22.30;9.83;;;;;;;18.55;84.84;99163.56;1668999;84;21592;-81
2022/10/01 08:48:29;;;;;;;18.45;10.60;;;;;;;18.68;85.06;99148.73;1633849;87;21005;-80
2022/10/01 08:51:09;;;;;;;20.70;10.58;;;;;;;18.78;85.06;99155.20;1628552;88;21057;-82
2022/10/01 08:53:48;;;;;;;16.07;9.93;;;;;;;18.94;85.13;99156.50;1624086;88;21013;-83
2022/10/01 08:56:33;;;;;;;13.65;9.23;;;;;;;19.06;85.03;99159.72;1631353;87;21014;-81
2022/10/01 08:59:15;;;;;;;16.62;8.88;;;;;;;19.21;84.87;99155.31;1645549;85;21125;-82
2022/10/01 09:01:42;;;;;;;12.60;8.25;;;;;;;19.39;84.70;99152.52;1603223;88;21054;-80
2022/10/01 09:04:10;;;;;;;16.32;8.25;;;;;;;19.53;84.33;99141.98;1628348;88;21039;-80
2022/10/01 09:06:37;;;;;;;14.50;8.48;;;;;;;19.61;83.67;99137.55;1632787;88;21027;-81
2022/10/01 09:09:23;;;;;;;14.45;8.25;;;;;;;19.71;82.58;99133.88;1651535;85;21065;-79
2022/10/01 09:12:11;;;;;;;16.12;8.10;;;;;;;19.81;81.33;99135.03;1654522;85;21472;-81
2022/10/01 09:15:04;;;;;;;14.63;8.60;;;;;;;19.95;81.54;99132.84;1618828;86;21051;-80
2022/10/01 09:17:52;;;;;;;15.45;9.00;;;;;;;20.05;81.26;99129.55;1634983;86;20998;-80
2022/10/01 09:20:36;;;;;;;17.12;8.63;;;;;;;20.23;80.13;99123.56;1631175;86;21038;-81
2022/10/01 09:23:30;;;;;;;12.98;8.00;;;;;;;20.44;80.66;99114.70;1675303;85;21033;-81
2022/10/01 09:25:58;;;;;;;15.15;7.35;;;;;;;20.64;80.01;99111.26;1683690;85;21025;-81
2022/10/01 09:28:33;;;;;;;12.65;7.40;;;;;;;20.78;79.56;99107.70;1675941;85;20989;-81
2022/10/01 09:31:26;;;;;;;12.60;7.17;;;;;;;20.91;79.64;99107.25;1683874;85;21083;-80
2022/10/01 09:34:17;;;;;;;13.13;6.62;;;;;;;21.05;78.42;99108.48;1677223;85;20994;-81
2022/10/01 09:37:13;;;;;;;14.85;6.65;;;;;;;21.19;77.54;99114.63;1659061;85;21028;-82
2022/10/01 09:40:07;;;;;;;14.00;5.90;;;;;;;21.28;77.39;99106.05;1676827;85;21141;-80
2022/10/01 09:42:35;;;;;;;15.65;5.60;;;;;;;21.48;76.84;99106.01;1681232;85;21089;-85
2022/10/01 09:45:05;;;;;;;11.05;5.60;;;;;;;21.59;76.91;99100.82;1683202;84;21584;-79
2022/10/01 09:47:33;;;;;;;13.28;4.40;;;;;;;21.69;75.56;99096.22;1681682;85;20982;-81
2022/10/01 09:50:05;;;;;;;9.48;4.60;;;;;;;21.73;74.47;99100.33;1679845;85;21525;-78
2022/10/01 09:52:38;;;;;;;9.28;4.90;;;;;;;21.82;74.84;99096.52;1682056;85;21021;-80
2022/10/01 09:55:24;;;;;;;11.80;4.80;;;;;;;21.88;75.07;99089.95;1681384;85;21052;-82
2022/10/01 09:58:05;;;;;;;8.58;4.80;;;;;;;21.98;74.71;99076.90;1680797;85;20929;-80
2022/10/01 10:00:35;;;;;;;11.48;4.97;;;;;;;22.16;74.48;99069.42;1661936;85;21037;-80
2022/10/01 10:03:03;;;;;;;12.45;4.75;;;;;;;22.15;74.36;99062.45;1664932;86;21021;-78
2022/10/01 10:05:45;;;;;;;9.78;3.95;;;;;;;22.27;74.42;99061.57;1661167;86;21486;-80
2022/10/01 10:08:33;;;;;;;8.43;3.75;;;;;;;22.36;73.85;99062.22;1663800;85;21007;-80
2022/10/01 10:11:09;;;;;;;8.35;4.12;;;;;;;22.44;72.14;99065.14;1674410;85;20997;-81
2022/10/01 10:13:52;;;;;;;8.23;4.30;;;;;;;22.52;72.46;99058.41;1667468;86;21053;-83
2022/10/01 10:16:33;;;;;;;10.70;3.80;;;;;;;22.57;71.19;99046.99;1656495;85;21017;-80
2022/10/01 10:19:15;;;;;;;6.60;4.03;;;;;;;22.62;70.42;99056.29;1654006;86;21034;-81
2022/10/01 10:21:52;;;;;;;8.38;3.85;;;;;;;22.73;70.41;99060.77;1652709;86;20989;-81
2022/10/01 10:24:33;;;;;;;10.60;3.83;;;;;;;22.86;69.82;99061.15;1667274;86;21030;-80
2022/10/01 10:27:05;;;;;;;6.60;3.60;;;;;;;22.91;70.71;99057.67;1650521;86;21073;-80
2022/10/01 10:29:35;;;;;;;5.65;3.27;;;;;;;23.05;70.07;99042.91;1666994;86;20989;-80
2022/10/01 10:32:24;;;;;;;11.65;5.75;;;;;;;23.17;69.23;99039.29;1656446;86;21462;-78
2022/10/01 10:34:59;;;;;;;8.55;4.33;;;;;;;23.30;68.36;99035.67;1654637;86;21025;-83
2022/10/01 10:37:33;;;;;;;8.03;4.22;;;;;;;23.39;67.87;99023.02;1660729;86;21010;-83
2022/10/01 10:40:00;;;;;;;;;;;;;;;23.48;66.56;99018.81;1668937;86;21017;-81
2022/10/01 10:42:28;;;;;;;7.30;3.83;;;;;;;23.62;66.71;99015.89;1660612;85;20113;-81
2022/10/01 10:45:02;;;;;;;9.03;3.83;;;;;;;23.74;65.42;99015.38;1666418;85;21053;-80
2022/10/01 10:47:32;;;;;;;10.32;3.27;;;;;;;23.82;66.77;98999.70;1659499;86;20989;-81
2022/10/01 10:50:03;;;;;;;10.85;4.08;;;;;;;23.88;65.69;99008.49;1666124;86;21010;-80
2022/10/01 10:52:35;;;;;;;8.48;3.92;;;;;;;24.01;65.75;99009.64;1658344;86;20994;-80
2022/10/01 10:55:29;;;;;;;10.63;4.10;;;;;;;24.11;64.49;99011.06;1665580;85;21058;-82
2022/10/01 10:58:13;;;;;;;7.72;4.47;;;;;;;24.21;64.61;99002.69;1660648;86;21493;-81
2022/10/01 11:00:48;;;;;;;8.10;4.40;;;;;;;24.36;65.21;99000.58;1669051;86;21035;-81
2022/10/01 11:03:23;;;;;;;7.10;4.22;;;;;;;24.45;64.80;98993.64;1665376;86;21017;-80
2022/10/01 11:05:55;;;;;;;10.38;4.37;;;;;;;24.54;64.31;98991.58;1668417;86;21050;-81
2022/10/01 11:08:26;;;;;;;11.60;4.40;;;;;;;24.59;64.46;98985.36;1663520;85;21042;-81
2022/10/01 11:11:08;;;;;;;10.08;3.98;;;;;;;24.71;62.95;98984.34;1663508;86;21057;-81
2022/10/01 11:14:02;;;;;;;9.10;4.12;;;;;;;24.74;64.31;98980.08;1645074;86;21034;-82
2022/10/01 11:16:44;;;;;;;7.22;3.20;;;;;;;24.78;63.01;98976.18;1607105;89;21043;-84
2022/10/01 11:19:43;;;;;;;10.53;3.87;;;;;;;24.84;62.41;98973.98;1596474;89;21044;-83
2022/10/01 11:22:39;;;;;;;12.80;3.90;;;;;;;24.86;62.77;98963.56;1646936;86;20985;-81
2022/10/01 11:25:36;;;;;;;7.35;3.52;;;;;;;24.87;62.18;98957.28;1665421;86;21487;-80
2022/10/01 11:28:36;;;;;;;12.33;3.80;;;;;;;24.89;62.42;98960.65;1664181;86;21075;-80
2022/10/01 11:31:26;;;;;;;7.97;3.70;;;;;;;24.88;61.61;98958.11;1588103;86;21031;-80
2022/10/01 11:34:28;;;;;;;5.47;3.33;;;;;;;24.90;61.77;98957.49;1678145;85;20982;-79
2022/10/01 11:37:17;;;;;;;8.95;3.17;;;;;;;24.85;58.53;98953.91;1668587;84;20971;-82
2022/10/01 11:39:48;;;;;;;10.45;3.33;;;;;;;24.85;61.04;98943.74;1686679;84;21416;-80
2022/10/01 11:42:21;;;;;;;8.18;3.95;;;;;;;24.81;59.81;98936.05;1622314;87;20998;-80
2022/10/01 11:44:56;;;;;;;;;;;;;;;24.83;60.54;98928.41;1647911;86;21076;-83
2022/10/01 11:47:35;;;;;;;10.82;6.20;;;;;;;24.84;59.11;98931.44;1681545;85;20099;-84
2022/10/01 11:50:14;;;;;;;11.97;3.22;;;;;;;24.81;60.75;98928.08;1661640;86;20994;-81
2022/10/01 11:52:58;;;;;;;7.78;2.77;;;;;;;24.74;60.74;98911.45;1664233;86;21028;-78
2022/10/01 11:58:53;;;;;;;4.70;2.10;;;;;;;24.59;55.93;98909.63;1661428;86;21553;-80